Time;durP1;ratioP1;P1;durP2;ratioP2;P2;SDS_P1;SDS_P2;PMS_P1;PMS_P2;Temp;Humidity;BMP_temperature;BMP_pressure;BME280_temperature;BME280_humidity;BME280_pressure;Samples;Min_cycle;Max_cycle;Signal;HPM_P1;HPM_P2
2022/09/12 00:00:48;;;;;;;2.63;2.45;;;;;;;12.98;100.00;100765.22;5034488;28;20018;-58
2022/09/12 00:03:14;;;;;;;5.82;3.50;;;;;;;12.97;100.00;100756.41;5030867;28;20024;-57
2022/09/12 00:05:40;;;;;;;4.55;3.17;;;;;;;12.99;100.00;100751.72;5038658;28;20041;-56
2022/09/12 00:08:06;;;;;;;2.85;2.45;;;;;;;12.98;100.00;100752.72;5036713;28;20609;-57
2022/09/12 00:10:31;;;;;;;2.45;2.35;;;;;;;12.98;100.00;100754.56;5035711;28;20148;-55
2022/09/12 00:12:57;;;;;;;5.00;2.88;;;;;;;12.97;100.00;100755.59;5033872;28;20491;-57
2022/09/12 00:15:22;;;;;;;2.55;2.35;;;;;;;12.95;100.00;100749.63;5035090;28;20033;-52
2022/09/12 00:17:47;;;;;;;5.72;3.33;;;;;;;12.92;100.00;100750.03;5029534;28;20060;-55
2022/09/12 00:20:13;;;;;;;7.20;3.35;;;;;;;12.90;100.00;100746.75;5036435;28;20125;-57
2022/09/12 00:22:38;;;;;;;3.88;2.13;;;;;;;12.93;100.00;100747.16;5040866;28;20032;-57
2022/09/12 00:25:04;;;;;;;4.50;2.35;;;;;;;12.98;100.00;100741.25;5034696;28;20029;-55
2022/09/12 00:27:29;;;;;;;4.45;2.92;;;;;;;12.99;100.00;100741.06;5033757;28;20831;-52
2022/09/12 00:29:55;;;;;;;5.00;3.28;;;;;;;12.96;100.00;100740.63;5035126;28;20095;-56
2022/09/12 00:32:20;;;;;;;3.15;2.85;;;;;;;12.85;100.00;100744.69;5033280;28;20075;-54
2022/09/12 00:34:46;;;;;;;2.58;2.08;;;;;;;12.79;100.00;100740.19;5029030;28;20044;-52
2022/09/12 00:37:11;;;;;;;6.15;3.67;;;;;;;12.73;100.00;100735.66;5033452;28;20250;-55
2022/09/12 00:39:37;;;;;;;3.80;3.40;;;;;;;12.68;100.00;100738.91;5032167;28;20382;-54
2022/09/12 00:42:02;;;;;;;4.22;3.17;;;;;;;12.63;100.00;100731.53;5040005;28;20037;-55
2022/09/12 00:44:27;;;;;;;3.88;3.38;;;;;;;12.57;100.00;100731.47;5038292;28;20108;-55
2022/09/12 00:46:53;;;;;;;4.32;3.00;;;;;;;12.56;100.00;100737.81;5034888;28;20055;-56
2022/09/12 00:49:23;;;;;;;4.72;2.28;;;;;;;12.57;100.00;100739.44;5039069;28;20025;-56
2022/09/12 00:52:07;;;;;;;6.77;3.43;;;;;;;12.58;100.00;100728.63;5029450;28;20025;-55
2022/09/12 00:54:40;;;;;;;4.07;2.83;;;;;;;12.58;100.00;100733.13;5037621;28;20037;-55
2022/09/12 00:57:09;;;;;;;4.55;3.20;;;;;;;12.58;100.00;100738.47;5042986;28;20029;-55
2022/09/12 00:59:42;;;;;;;7.70;2.92;;;;;;;12.57;100.00;100731.47;5035918;28;20047;-55
2022/09/12 01:02:08;;;;;;;5.20;3.55;;;;;;;12.58;100.00;100727.81;5037866;28;21001;-56
2022/09/12 01:04:37;;;;;;;5.00;3.78;;;;;;;12.64;100.00;100727.81;5043283;28;20136;-56
2022/09/12 01:07:05;;;;;;;10.82;4.93;;;;;;;12.71;100.00;100727.88;5031854;28;20052;-57
2022/09/12 01:09:30;;;;;;;6.50;4.20;;;;;;;12.73;100.00;100728.50;5038721;28;20033;-54
2022/09/12 01:11:56;;;;;;;3.35;3.05;;;;;;;12.73;100.00;100725.03;5038644;28;20442;-56
2022/09/12 01:14:21;;;;;;;4.30;3.90;;;;;;;12.72;100.00;100726.84;5041530;28;20045;-56
2022/09/12 01:16:48;;;;;;;6.90;4.55;;;;;;;12.69;100.00;100721.91;5038501;28;20106;-54
2022/09/12 01:19:53;;;;;;;4.32;3.50;;;;;;;12.71;100.00;100716.41;5034832;28;20120;-56
2022/09/12 01:22:24;;;;;;;6.00;3.80;;;;;;;12.77;100.00;100724.41;5033768;28;20025;-56
2022/09/12 01:25:14;;;;;;;2.88;2.67;;;;;;;12.75;100.00;100717.63;5039518;28;20060;-56
2022/09/12 01:27:58;;;;;;;5.55;3.45;;;;;;;12.75;100.00;100707.84;5038544;28;20029;-54
2022/09/12 01:31:01;;;;;;;5.60;3.58;;;;;;;12.75;100.00;100707.84;5042118;28;20029;-55
2022/09/12 01:33:50;;;;;;;5.57;4.45;;;;;;;12.74;100.00;100705.38;5037820;28;20169;-53
2022/09/12 01:36:33;;;;;;;8.15;3.67;;;;;;;12.70;100.00;100702.28;5038950;28;20490;-57
2022/09/12 01:39:05;;;;;;;7.20;4.68;;;;;;;12.71;100.00;100698.59;5035796;28;20090;-57
2022/09/12 01:41:39;;;;;;;5.10;4.13;;;;;;;12.69;100.00;100697.97;5041083;28;20029;-56
2022/09/12 01:44:50;;;;;;;6.85;4.32;;;;;;;12.68;100.00;100695.53;5040070;28;20029;-55
2022/09/12 01:47:31;;;;;;;6.45;4.00;;;;;;;12.68;100.00;100693.69;5036500;28;20045;-56
2022/09/12 01:50:01;;;;;;;5.20;4.70;;;;;;;12.69;100.00;100695.31;5033795;28;20040;-57
2022/09/12 01:52:27;;;;;;;7.03;4.63;;;;;;;12.71;100.00;100695.13;5042446;28;20060;-55
2022/09/12 01:55:00;;;;;;;4.32;3.92;;;;;;;12.72;100.00;100692.25;5031610;28;20474;-57
2022/09/12 01:57:35;;;;;;;4.57;4.18;;;;;;;12.71;100.00;100690.63;5024836;28;20025;-57
2022/09/12 02:00:08;;;;;;;8.18;4.35;;;;;;;12.72;100.00;100692.25;5042579;28;20304;-56
2022/09/12 02:02:39;;;;;;;6.53;4.55;;;;;;;12.71;100.00;100690.63;5036971;28;20079;-58
2022/09/12 02:05:12;;;;;;;5.63;4.13;;;;;;;12.72;100.00;100689.59;5036983;28;20042;-56
2022/09/12 02:08:09;;;;;;;5.47;4.63;;;;;;;12.71;100.00;100690.63;5047424;28;20086;-57
2022/09/12 02:10:46;;;;;;;5.78;4.60;;;;;;;12.65;100.00;100676.28;5033810;28;20041;-58
2022/09/12 02:13:20;;;;;;;7.55;4.05;;;;;;;12.63;100.00;100674.84;5033888;28;20174;-58
2022/09/12 02:15:52;;;;;;;6.13;4.20;;;;;;;12.60;100.00;100668.06;5045074;28;20033;-54
2022/09/12 02:18:20;;;;;;;5.47;4.15;;;;;;;12.59;100.00;100670.94;5038271;28;20206;-57
2022/09/12 02:20:46;;;;;;;7.22;5.90;;;;;;;12.60;100.00;100661.94;5037078;28;20143;-59
2022/09/12 02:23:19;;;;;;;6.10;4.95;;;;;;;12.56;100.00;100656.19;5035127;28;20041;-57
2022/09/12 02:25:49;;;;;;;4.93;4.43;;;;;;;12.57;100.00;100659.66;5037080;28;20059;-54
2022/09/12 02:28:25;;;;;;;6.68;4.82;;;;;;;12.53;100.00;100655.78;5038149;28;20029;-55
2022/09/12 02:31:18;;;;;;;6.97;4.72;;;;;;;12.47;100.00;100651.22;5043095;28;20036;-53
2022/09/12 02:34:10;;;;;;;6.45;4.60;;;;;;;12.40;100.00;100644.06;5034204;28;20064;-53
2022/09/12 02:37:02;;;;;;;7.53;5.70;;;;;;;12.34;100.00;100644.03;5042711;28;20204;-56
2022/09/12 02:39:27;;;;;;;5.55;4.68;;;;;;;12.33;100.00;100647.72;5038476;28;20033;-54
2022/09/12 02:41:59;;;;;;;7.32;5.68;;;;;;;12.32;100.00;100638.13;5037425;28;20038;-54
2022/09/12 02:44:27;;;;;;;6.32;5.22;;;;;;;12.32;100.00;100643.44;5038618;28;20027;-54
2022/09/12 02:47:07;;;;;;;4.32;3.47;;;;;;;12.31;100.00;100639.94;5042075;28;20494;-51
2022/09/12 02:49:33;;;;;;;6.13;4.53;;;;;;;12.29;100.00;100642.00;5042508;28;20055;-55
2022/09/12 02:52:00;;;;;;;5.90;5.22;;;;;;;12.31;100.00;100642.59;5037838;28;20395;-56
2022/09/12 02:54:26;;;;;;;5.25;4.32;;;;;;;12.31;100.00;100642.59;5044604;28;20116;-56
2022/09/12 02:56:51;;;;;;;8.45;4.93;;;;;;;12.31;100.00;100647.91;5031078;28;20376;-50
2022/09/12 02:59:21;;;;;;;7.85;4.68;;;;;;;12.32;100.00;100652.22;5044460;28;20028;-56
2022/09/12 03:02:01;;;;;;;5.80;4.35;;;;;;;12.31;100.00;100647.09;5038385;28;20036;-56
2022/09/12 03:05:12;;;;;;;8.93;4.70;;;;;;;12.31;100.00;100658.53;5028985;28;20398;-55
2022/09/12 03:07:44;;;;;;;5.75;3.65;;;;;;;12.31;100.00;100649.75;5029601;28;20076;-55
2022/09/12 03:10:13;;;;;;;5.97;4.72;;;;;;;12.34;100.00;100657.31;5039232;28;20115;-51
2022/09/12 03:12:51;;;;;;;7.40;4.63;;;;;;;12.30;100.00;100656.91;5041117;28;20458;-56
2022/09/12 03:15:19;;;;;;;6.47;5.47;;;;;;;12.29;100.00;100638.47;5033803;28;20075;-56
2022/09/12 03:18:16;;;;;;;5.47;4.85;;;;;;;12.28;100.00;100648.31;5033486;28;20824;-55
2022/09/12 03:21:01;;;;;;;6.68;4.95;;;;;;;12.25;100.00;100648.69;5039286;28;20091;-56
2022/09/12 03:23:41;;;;;;;6.22;3.88;;;;;;;12.23;100.00;100637.44;5033968;28;20033;-55
2022/09/12 03:26:20;;;;;;;6.60;5.13;;;;;;;12.22;100.00;100638.47;5037248;28;20052;-53
2022/09/12 03:28:47;;;;;;;9.48;4.82;;;;;;;12.17;100.00;100616.97;5039053;28;20398;-55
2022/09/12 03:31:18;;;;;;;6.63;5.20;;;;;;;12.11;100.00;100618.59;5046323;28;20029;-56
2022/09/12 03:33:44;;;;;;;10.15;6.05;;;;;;;12.10;100.00;100616.94;5038215;28;20036;-53
2022/09/12 03:36:22;;;;;;;13.18;5.93;;;;;;;12.12;100.00;100614.91;5034420;28;20029;-54
2022/09/12 03:38:48;;;;;;;6.47;5.40;;;;;;;12.12;100.00;100622.06;5036832;28;20033;-56
2022/09/12 03:41:14;;;;;;;6.13;4.82;;;;;;;12.08;100.00;100621.66;5036490;28;20036;-56
2022/09/12 03:43:39;;;;;;;8.70;4.93;;;;;;;12.02;100.00;100617.09;5030430;28;20119;-55
2022/09/12 03:46:05;;;;;;;8.18;5.50;;;;;;;11.95;100.00;100605.63;5033421;28;20263;-55
2022/09/12 03:48:30;;;;;;;8.95;6.00;;;;;;;11.89;100.00;100614.38;5043870;28;20029;-56
2022/09/12 03:51:00;;;;;;;6.57;4.72;;;;;;;11.86;100.00;100612.94;5032973;28;20029;-54
2022/09/12 03:53:25;;;;;;;6.28;4.75;;;;;;;11.85;100.00;100616.59;5044184;28;20048;-56
2022/09/12 03:55:50;;;;;;;9.88;5.00;;;;;;;11.85;100.00;100610.44;5031385;28;20470;-56
2022/09/12 03:58:16;;;;;;;5.28;4.30;;;;;;;11.86;100.00;100607.63;5034269;28;20056;-57
2022/09/12 04:00:43;;;;;;;5.93;5.32;;;;;;;11.86;100.00;100604.97;5036256;28;20060;-57
2022/09/12 04:03:08;;;;;;;6.03;4.63;;;;;;;11.90;100.00;100602.72;5037990;28;20091;-57
2022/09/12 04:05:34;;;;;;;7.57;5.72;;;;;;;11.91;100.00;100602.53;5037324;28;20029;-57
2022/09/12 04:08:00;;;;;;;9.70;5.30;;;;;;;11.94;100.00;100599.50;5036455;28;20108;-56
2022/09/12 04:10:25;;;;;;;13.23;7.05;;;;;;;11.99;100.00;100604.22;5037644;28;20112;-57
2022/09/12 04:12:50;;;;;;;5.93;4.20;;;;;;;11.99;100.00;100605.03;5035492;28;20037;-57
2022/09/12 04:15:16;;;;;;;7.68;5.40;;;;;;;12.03;100.00;100601.97;5028225;28;20875;-56
2022/09/12 04:17:41;;;;;;;8.25;4.25;;;;;;;12.04;100.00;100603.63;5033458;28;20450;-57
2022/09/12 04:20:07;;;;;;;7.03;5.45;;;;;;;12.04;100.00;100599.13;5033590;28;20033;-55
2022/09/12 04:22:32;;;;;;;7.50;4.97;;;;;;;12.07;100.00;100609.38;5034176;28;20040;-55
2022/09/12 04:24:57;;;;;;;5.95;4.68;;;;;;;12.09;100.00;100603.88;5037722;28;20109;-55
2022/09/12 04:27:23;;;;;;;7.45;5.38;;;;;;;12.12;100.00;100603.47;5035296;28;20075;-57
2022/09/12 04:29:48;;;;;;;6.15;5.05;;;;;;;12.14;100.00;100602.25;5041137;28;20040;-57
2022/09/12 04:32:14;;;;;;;8.00;4.72;;;;;;;12.12;100.00;100608.78;5049092;28;20028;-56
2022/09/12 04:34:39;;;;;;;5.28;4.35;;;;;;;12.10;100.00;100610.81;5043339;28;20103;-57
2022/09/12 04:37:04;;;;;;;6.63;4.60;;;;;;;12.09;100.00;100606.53;5041997;28;20025;-54
2022/09/12 04:39:30;;;;;;;5.95;3.90;;;;;;;12.07;100.00;100613.88;5037674;28;20022;-57
2022/09/12 04:41:55;;;;;;;11.50;5.75;;;;;;;12.04;100.00;100600.97;5037486;28;20044;-55
2022/09/12 04:44:21;;;;;;;7.57;4.97;;;;;;;12.02;100.00;100603.00;5041312;28;20494;-56
2022/09/12 04:46:47;;;;;;;5.82;4.80;;;;;;;12.00;100.00;100603.19;5033239;28;20083;-57
2022/09/12 04:49:15;;;;;;;9.27;5.72;;;;;;;11.94;100.00;100594.19;5039361;28;20040;-57
2022/09/12 04:51:41;;;;;;;8.05;5.25;;;;;;;11.92;100.00;100596.19;5033628;28;20475;-58
2022/09/12 04:54:15;;;;;;;6.40;5.07;;;;;;;11.91;100.00;100597.22;5034674;28;20427;-56
2022/09/12 04:56:43;;;;;;;6.05;4.75;;;;;;;11.90;100.00;100597.41;5038647;28;20024;-56
2022/09/12 04:59:10;;;;;;;6.95;4.53;;;;;;;11.85;100.00;100590.03;5046055;28;20028;-57
2022/09/12 05:01:36;;;;;;;7.38;4.75;;;;;;;11.79;100.00;100591.59;5041045;28;20480;-57
2022/09/12 05:04:01;;;;;;;5.90;4.50;;;;;;;11.80;100.00;100589.78;5039032;28;20128;-56
2022/09/12 05:06:29;;;;;;;14.30;5.20;;;;;;;11.80;100.00;100581.81;5050233;28;20425;-52
2022/09/12 05:08:57;;;;;;;6.18;4.13;;;;;;;11.78;100.00;100589.16;5045958;28;20043;-57
2022/09/12 05:11:25;;;;;;;4.93;4.00;;;;;;;11.76;100.00;100594.66;5046021;28;20389;-56
2022/09/12 05:13:51;;;;;;;8.88;4.82;;;;;;;11.75;100.00;100594.88;5041027;28;20060;-57
2022/09/12 05:16:18;;;;;;;5.13;4.13;;;;;;;11.72;100.00;100593.44;5036866;28;20092;-55
2022/09/12 05:18:44;;;;;;;5.90;4.63;;;;;;;11.70;100.00;100590.16;5044671;28;20466;-55
2022/09/12 05:21:15;;;;;;;6.30;5.03;;;;;;;11.73;100.00;100588.94;5041711;28;20074;-56
2022/09/12 05:23:41;;;;;;;7.20;4.97;;;;;;;11.72;100.00;100595.25;5039270;28;20525;-53
2022/09/12 05:26:07;;;;;;;6.57;4.70;;;;;;;11.78;100.00;100597.94;5032533;28;20094;-54
2022/09/12 05:28:37;;;;;;;5.05;4.50;;;;;;;11.83;100.00;100596.56;5046175;28;20045;-57
2022/09/12 05:31:05;;;;;;;4.85;4.35;;;;;;;11.85;100.00;100600.66;5031450;28;20036;-57
2022/09/12 05:33:32;;;;;;;7.15;5.05;;;;;;;11.85;100.00;100598.00;5036155;28;20072;-57
2022/09/12 05:35:58;;;;;;;7.20;4.72;;;;;;;11.84;100.00;100599.00;5039183;28;20104;-57
2022/09/12 05:38:24;;;;;;;9.60;5.07;;;;;;;11.83;100.00;100608.00;5038056;28;20040;-56
2022/09/12 05:40:50;;;;;;;7.80;5.15;;;;;;;11.86;100.00;100602.31;5041905;28;20031;-56
2022/09/12 05:43:16;;;;;;;11.45;5.50;;;;;;;11.87;100.00;100598.63;5037790;28;20039;-55
2022/09/12 05:45:42;;;;;;;10.05;4.63;;;;;;;11.88;100.00;100597.63;5032134;28;20454;-56
2022/09/12 05:48:07;;;;;;;6.63;5.75;;;;;;;11.89;100.00;100596.59;5035966;28;20029;-57
2022/09/12 05:50:32;;;;;;;7.75;6.20;;;;;;;11.89;100.00;100601.91;5029460;28;20441;-57
2022/09/12 05:52:58;;;;;;;7.50;5.03;;;;;;;11.89;100.00;100596.59;5032018;28;20140;-57
2022/09/12 05:55:23;;;;;;;6.97;5.47;;;;;;;11.93;100.00;100599.72;5028652;28;20379;-56
2022/09/12 05:57:50;;;;;;;6.43;4.88;;;;;;;11.94;100.00;100602.16;5035524;28;20481;-56
2022/09/12 06:00:16;;;;;;;8.48;5.05;;;;;;;11.92;100.00;100606.84;5038291;28;20021;-57
2022/09/12 06:02:41;;;;;;;6.90;5.78;;;;;;;11.92;100.00;100601.53;5030327;28;20571;-56
2022/09/12 06:05:07;;;;;;;6.03;4.30;;;;;;;11.93;100.00;100607.69;5037362;28;20025;-56
2022/09/12 06:07:34;;;;;;;6.93;4.25;;;;;;;11.93;100.00;100611.16;5033292;28;20116;-54
2022/09/12 06:09:59;;;;;;;6.05;4.68;;;;;;;11.96;100.00;100608.09;5035291;28;20052;-57
2022/09/12 06:12:27;;;;;;;6.38;4.63;;;;;;;12.00;100.00;100604.03;5026813;28;20161;-56
2022/09/12 06:14:53;;;;;;;10.82;7.25;;;;;;;12.04;100.00;100604.44;5022255;28;20037;-54
2022/09/12 06:17:18;;;;;;;11.18;5.90;;;;;;;12.11;100.00;100599.19;5029174;28;20057;-58
2022/09/12 06:19:44;;;;;;;14.90;7.38;;;;;;;12.18;100.00;100600.00;5030259;28;20464;-56
2022/09/12 06:22:10;;;;;;;8.10;6.03;;;;;;;12.26;100.00;100605.13;5034489;28;20460;-57
2022/09/12 06:24:35;;;;;;;11.23;6.00;;;;;;;12.35;100.00;100603.16;5034852;28;20021;-58
2022/09/12 06:27:01;;;;;;;7.82;5.97;;;;;;;12.44;100.00;100616.06;5023588;28;20074;-56
2022/09/12 06:29:27;;;;;;;9.93;6.45;;;;;;;12.49;100.00;100614.63;5033768;28;20112;-57
2022/09/12 06:31:52;;;;;;;9.57;5.97;;;;;;;12.55;100.00;100624.50;5027290;28;20033;-58
2022/09/12 06:34:18;;;;;;;8.93;6.82;;;;;;;12.62;100.00;100622.66;5030579;28;20024;-55
2022/09/12 06:36:46;;;;;;;9.80;6.38;;;;;;;12.73;100.00;100623.91;5034424;28;20064;-57
2022/09/12 06:39:15;;;;;;;9.82;6.25;;;;;;;12.82;100.00;100630.69;5022597;28;20370;-58
2022/09/12 06:41:40;;;;;;;14.02;7.13;;;;;;;12.89;100.00;100623.53;5028861;28;20390;-59
2022/09/12 06:44:05;;;;;;;7.50;6.18;;;;;;;12.94;100.00;100628.25;5023859;28;20041;-58
2022/09/12 06:46:31;;;;;;;9.55;6.53;;;;;;;12.99;100.00;100625.81;5028149;28;20022;-56
2022/09/12 06:48:59;;;;;;;13.35;7.00;;;;;;;13.05;100.00;100623.13;5031378;28;20044;-55
2022/09/12 06:51:25;;;;;;;19.85;6.93;;;;;;;13.09;100.00;100612.91;5019209;28;20021;-56
2022/09/12 06:53:54;;;;;;;9.73;6.00;;;;;;;13.11;100.00;100616.16;5019069;28;20031;-56
2022/09/12 06:56:21;;;;;;;10.82;5.60;;;;;;;13.15;100.00;100620.06;5031931;28;20416;-58
2022/09/12 06:58:48;;;;;;;21.58;7.72;;;;;;;13.18;100.00;100617.00;5031506;28;20056;-56
2022/09/12 07:01:26;;;;;;;14.63;6.60;;;;;;;13.28;100.00;100622.75;5034905;28;20401;-56
2022/09/12 07:03:54;;;;;;;10.68;5.60;;;;;;;13.36;100.00;100624.41;5028871;28;20032;-55
2022/09/12 07:06:23;;;;;;;9.98;6.78;;;;;;;13.40;100.00;100627.47;5026073;28;20425;-59
2022/09/12 07:08:49;;;;;;;9.90;6.63;;;;;;;13.40;100.00;100627.47;5030670;28;20017;-56
2022/09/12 07:11:20;;;;;;;11.00;6.60;;;;;;;13.46;100.00;100623.97;5034672;28;20047;-58
2022/09/12 07:13:50;;;;;;;12.75;6.75;;;;;;;13.51;100.00;100629.50;5036522;28;20098;-54
2022/09/12 07:16:16;;;;;;;11.50;7.75;;;;;;;13.59;100.00;100623.97;5031685;28;20053;-55
2022/09/12 07:18:42;;;;;;;13.02;6.22;;;;;;;13.70;100.00;100633.97;5031159;28;20096;-56
2022/09/12 07:21:12;;;;;;;11.60;6.75;;;;;;;13.82;100.00;100633.38;5035755;28;20343;-54
2022/09/12 07:23:38;;;;;;;10.80;6.95;;;;;;;13.89;100.00;100634.16;5038272;28;20504;-54
2022/09/12 07:26:04;;;;;;;7.70;5.15;;;;;;;13.96;100.00;100626.94;5035069;28;20040;-56
2022/09/12 07:28:32;;;;;;;9.02;7.07;;;;;;;14.03;100.00;100622.44;5031340;28;20040;-56
2022/09/12 07:30:58;;;;;;;9.88;6.28;;;;;;;14.13;100.00;100625.47;5031614;28;20436;-56
2022/09/12 07:33:27;;;;;;;9.20;6.65;;;;;;;14.27;100.00;100620.06;5031063;28;20230;-57
2022/09/12 07:35:55;;;;;;;10.75;6.72;;;;;;;14.48;100.00;100617.13;5050326;28;20445;-58
2022/09/12 07:38:21;;;;;;;13.10;7.03;;;;;;;14.79;100.00;100613.69;5032072;28;20025;-57
2022/09/12 07:40:46;;;;;;;10.52;6.97;;;;;;;15.15;100.00;100622.84;5028474;28;20021;-57
2022/09/12 07:43:12;;;;;;;8.75;5.95;;;;;;;15.58;100.00;100615.91;5037728;28;20449;-57
2022/09/12 07:45:40;;;;;;;9.10;5.82;;;;;;;15.95;100.00;100622.13;5036249;28;20116;-58
2022/09/12 07:48:06;;;;;;;5.82;5.00;;;;;;;16.18;100.00;100624.13;5036517;28;20129;-58
2022/09/12 07:50:32;;;;;;;8.20;5.07;;;;;;;16.28;100.00;100620.94;5021501;28;20029;-57
2022/09/12 07:52:57;;;;;;;8.45;5.00;;;;;;;16.33;100.00;100613.84;5030119;28;20392;-57
2022/09/12 07:55:23;;;;;;;8.43;3.85;;;;;;;16.31;100.00;100605.22;5031921;28;20025;-58
2022/09/12 07:57:52;;;;;;;5.28;4.25;;;;;;;16.27;100.00;100588.00;5026876;28;20017;-57
2022/09/12 08:00:18;;;;;;;6.15;3.38;;;;;;;16.34;100.00;100593.25;5026579;28;20490;-57
2022/09/12 08:02:44;;;;;;;5.80;4.35;;;;;;;16.40;100.00;100595.03;5026961;28;20156;-58
2022/09/12 08:05:10;;;;;;;5.82;3.70;;;;;;;16.38;100.00;100586.44;5028553;28;20120;-58
2022/09/12 08:07:35;;;;;;;3.78;2.97;;;;;;;16.38;100.00;100585.63;5034567;28;20036;-57
2022/09/12 08:10:01;;;;;;;4.25;3.15;;;;;;;16.40;100.00;100578.19;5031265;28;20041;-58
2022/09/12 08:12:27;;;;;;;6.15;3.10;;;;;;;16.50;100.00;100584.63;5039038;28;20045;-58
2022/09/12 08:14:52;;;;;;;7.88;3.22;;;;;;;16.78;100.00;100584.03;5034493;28;20382;-58
2022/09/12 08:17:18;;;;;;;5.55;3.05;;;;;;;16.94;100.00;100579.06;5032169;28;20064;-57
2022/09/12 08:19:43;;;;;;;6.10;3.10;;;;;;;17.04;100.00;100581.97;5033989;28;20486;-58
2022/09/12 08:22:10;;;;;;;5.28;2.88;;;;;;;17.13;100.00;100585.94;5036018;28;20033;-57
2022/09/12 08:24:35;;;;;;;4.45;3.05;;;;;;;17.22;100.00;100584.56;5033108;28;20132;-56
2022/09/12 08:27:01;;;;;;;2.97;2.10;;;;;;;17.37;100.00;100581.44;5032094;28;20144;-58
2022/09/12 08:29:26;;;;;;;4.97;3.25;;;;;;;17.46;100.00;100576.53;5035323;28;20033;-55
2022/09/12 08:31:51;;;;;;;4.18;1.73;;;;;;;17.56;100.00;100575.94;5032368;28;20029;-57
2022/09/12 08:34:18;;;;;;;7.45;2.08;;;;;;;17.66;100.00;100568.91;5033455;28;20163;-57
2022/09/12 08:36:44;;;;;;;3.10;2.28;;;;;;;17.81;100.00;100564.94;5042421;28;20024;-57
2022/09/12 08:39:13;;;;;;;3.72;1.70;;;;;;;17.95;100.00;100565.50;5037896;28;20025;-57
2022/09/12 08:41:55;;;;;;;2.60;1.52;;;;;;;18.09;100.00;100564.16;5037500;28;20030;-57
2022/09/12 08:44:30;;;;;;;2.55;1.63;;;;;;;18.21;100.00;100564.94;5044324;28;20040;-59
2022/09/12 08:47:07;;;;;;;4.80;1.65;;;;;;;18.23;100.00;100562.03;5031300;28;20028;-59
2022/09/12 08:49:59;;;;;;;1.63;1.52;;;;;;;18.20;100.00;100551.75;5037565;28;20040;-57
2022/09/12 08:52:28;;;;;;;1.63;1.52;;;;;;;18.26;100.00;100532.03;5046610;28;20028;-56
2022/09/12 08:54:55;;;;;;;5.20;2.72;;;;;;;18.42;100.00;100530.44;5033668;28;20128;-58
2022/09/12 08:57:21;;;;;;;3.70;1.52;;;;;;;18.64;100.00;100541.25;5038830;28;20031;-57
2022/09/12 08:59:47;;;;;;;6.18;1.88;;;;;;;18.86;100.00;100534.16;5030672;28;20029;-59
2022/09/12 09:02:42;;;;;;;2.38;2.20;;;;;;;19.06;100.00;100525.59;5029866;28;20025;-58
2022/09/12 09:05:46;;;;;;;4.22;1.48;;;;;;;19.15;100.00;100518.75;5036070;28;20573;-59
2022/09/12 09:08:21;;;;;;;5.20;1.23;;;;;;;19.24;100.00;100508.38;5037599;28;20029;-58
2022/09/12 09:11:03;;;;;;;1.75;1.65;;;;;;;19.22;100.00;100507.00;5029343;28;20040;-58
2022/09/12 09:16:35;;;;;;;2.28;1.48;;;;;;;19.17;100.00;100508.56;5034912;28;20080;-57
2022/09/12 09:19:08;;;;;;;2.92;1.55;;;;;;;19.22;100.00;100509.69;5024124;28;20032;-56
2022/09/12 09:21:43;;;;;;;1.45;1.27;;;;;;;19.31;100.00;100492.06;5033703;28;20095;-58
2022/09/12 09:24:15;;;;;;;3.17;0.93;;;;;;;19.47;100.00;100495.78;5039597;28;20033;-57
2022/09/12 09:27:00;;;;;;;2.85;1.17;;;;;;;19.51;100.00;100496.91;5029548;28;20028;-58
2022/09/12 09:29:38;;;;;;;4.07;1.55;;;;;;;19.48;100.00;100492.84;5040311;28;20033;-56
2022/09/12 09:32:12;;;;;;;1.85;1.05;;;;;;;19.49;100.00;100499.03;5034740;28;20060;-56
2022/09/12 09:34:38;;;;;;;3.53;2.03;;;;;;;19.55;100.00;100498.03;5036312;28;20020;-58
2022/09/12 09:37:18;;;;;;;2.45;1.00;;;;;;;19.54;100.00;100501.78;5033044;28;20039;-58
2022/09/12 09:39:56;;;;;;;4.70;1.95;;;;;;;19.61;100.00;100481.69;5033902;28;20768;-57
2022/09/12 09:42:46;;;;;;;1.05;0.60;;;;;;;19.96;100.00;100471.63;5038698;28;20104;-57
2022/09/12 09:45:21;;;;;;;0.90;0.80;;;;;;;20.49;100.00;100480.72;5036912;28;20502;-57
2022/09/12 09:47:57;;;;;;;3.25;0.70;;;;;;;20.77;100.00;100476.94;5038574;28;20381;-59
2022/09/12 09:50:23;;;;;;;2.88;1.50;;;;;;;20.97;100.00;100465.50;5034178;28;20032;-57
2022/09/12 09:52:51;;;;;;;1.27;1.25;;;;;;;21.11;100.00;100463.94;5038411;28;20113;-56
2022/09/12 09:55:24;;;;;;;1.65;0.90;;;;;;;21.30;100.00;100464.31;5033731;28;20018;-55
2022/09/12 09:57:51;;;;;;;1.05;0.70;;;;;;;21.52;100.00;100466.84;5034516;28;20029;-58
2022/09/12 10:00:29;;;;;;;5.63;0.65;;;;;;;21.66;100.00;100444.78;5038650;28;20123;-59
2022/09/12 10:03:03;;;;;;;3.03;1.13;;;;;;;21.62;100.00;100441.00;5032507;28;20432;-54
2022/09/12 10:05:31;;;;;;;1.75;0.38;;;;;;;21.54;100.00;100440.44;5034836;28;20075;-59
2022/09/12 10:07:57;;;;;;;5.22;1.30;;;;;;;21.48;100.00;100438.00;5036930;28;20031;-59
2022/09/12 10:10:23;;;;;;;6.03;0.60;;;;;;;21.47;100.00;100447.97;5032533;28;20029;-60
2022/09/12 10:12:49;;;;;;;1.20;0.32;;;;;;;21.42;100.00;100460.63;5036767;28;20184;-58
2022/09/12 10:15:22;;;;;;;2.20;0.38;;;;;;;21.40;100.00;100454.66;5038865;28;20052;-56
2022/09/12 10:17:49;;;;;;;4.20;0.80;;;;;;;21.24;100.00;100440.28;5031789;28;20121;-60
2022/09/12 10:20:33;;;;;;;3.72;1.38;;;;;;;21.13;100.00;100444.81;5035206;28;20122;-56
2022/09/12 10:23:01;;;;;;;2.83;0.45;;;;;;;21.15;100.00;100449.97;5033601;28;20029;-57
2022/09/12 10:25:27;;;;;;;1.00;0.47;;;;;;;21.18;100.00;100444.03;5046358;28;20490;-57
2022/09/12 10:27:58;;;;;;;1.02;0.85;;;;;;;21.28;100.00;100453.00;5039980;28;20517;-58
2022/09/12 10:30:27;;;;;;;2.60;0.55;;;;;;;21.31;100.00;100444.38;5032770;28;20029;-57
2022/09/12 10:32:56;;;;;;;0.80;0.40;;;;;;;21.42;100.00;100447.94;5043757;28;20113;-59
2022/09/12 10:35:29;;;;;;;0.98;0.32;;;;;;;21.52;100.00;100439.88;5042859;28;20474;-57
2022/09/12 10:38:20;;;;;;;2.40;0.52;;;;;;;21.66;100.00;100423.19;5031759;28;20033;-59
2022/09/12 10:40:55;;;;;;;2.97;0.30;;;;;;;21.82;100.00;100432.16;5044706;28;20032;-56
2022/09/12 10:43:33;;;;;;;3.88;0.20;;;;;;;21.99;100.00;100422.75;5034674;28;20474;-58
2022/09/12 10:46:20;;;;;;;3.30;0.57;;;;;;;22.14;100.00;100430.03;5037603;28;20094;-57
2022/09/12 10:48:47;;;;;;;0.35;0.20;;;;;;;22.17;100.00;100423.28;5045814;28;20037;-58
2022/09/12 10:51:24;;;;;;;2.65;0.60;;;;;;;22.05;100.00;100412.75;5037357;28;20029;-59
2022/09/12 10:53:52;;;;;;;2.00;0.73;;;;;;;22.04;100.00;100415.72;5041279;28;20038;-57
2022/09/12 10:56:21;;;;;;;2.92;0.70;;;;;;;22.05;100.00;100417.34;5036630;28;20098;-58
2022/09/12 10:59:30;;;;;;;1.05;0.50;;;;;;;22.31;100.00;100413.59;5039848;28;20029;-58
2022/09/12 11:02:28;;;;;;;2.00;0.57;;;;;;;22.56;100.00;100412.78;5044796;28;20072;-57
2022/09/12 11:05:03;;;;;;;7.97;0.65;;;;;;;22.47;100.00;100408.19;5041070;28;20033;-58
2022/09/12 11:07:36;;;;;;;2.53;0.50;;;;;;;22.36;100.00;100405.50;5042478;28;20478;-59
2022/09/12 11:10:28;;;;;;;12.20;3.67;;;;;;;22.32;100.00;100407.09;5037722;28;20117;-57
2022/09/12 11:13:08;;;;;;;2.40;0.55;;;;;;;22.47;100.00;100405.50;5041159;28;20069;-56
2022/09/12 11:15:58;;;;;;;1.27;0.77;;;;;;;22.72;100.00;100399.22;5037184;28;20067;-59
2022/09/12 11:19:02;;;;;;;2.05;1.05;;;;;;;22.92;100.00;100393.75;5041474;28;20474;-58
2022/09/12 11:21:43;;;;;;;1.52;1.00;;;;;;;23.03;100.00;100402.69;5040175;28;20494;-56
2022/09/12 11:24:12;;;;;;;;;;;;;;;23.26;100.00;100391.25;5036050;28;20387;-59
2022/09/12 11:26:54;;;;;;;2.05;0.40;;;;;;;23.59;100.00;100396.19;5037791;28;19944;-58
2022/09/12 11:29:35;;;;;;;1.35;0.40;;;;;;;23.49;100.00;100389.78;5043580;28;20033;-58
2022/09/12 11:32:01;;;;;;;0.45;0.28;;;;;;;23.46;100.00;100387.59;5042300;28;20025;-58
2022/09/12 11:34:47;;;;;;;4.95;0.45;;;;;;;23.65;100.00;100392.38;5041236;28;20036;-62
2022/09/12 11:37:34;;;;;;;0.63;0.10;;;;;;;23.71;100.00;100389.34;5040471;28;20068;-58